sensor_id;sensor_type;location;lat;lon;timestamp;P1;durP1;ratioP1;P2;durP2;ratioP2
37791;SDS011;29527;55.766;37.570;2022-07-29T00:01:28;2.70;;;1.23;;
37791;SDS011;29527;55.766;37.570;2022-07-29T00:03:54;1.75;;;1.58;;
37791;SDS011;29527;55.766;37.570;2022-07-29T00:06:20;3.90;;;1.42;;
37791;SDS011;29527;55.766;37.570;2022-07-29T00:08:46;5.32;;;1.73;;
37791;SDS011;29527;55.766;37.570;2022-07-29T00:11:11;1.95;;;1.20;;
37791;SDS011;29527;55.766;37.570;2022-07-29T00:13:37;3.05;;;1.10;;
37791;SDS011;29527;55.766;37.570;2022-07-29T00:16:03;3.25;;;1.20;;
37791;SDS011;29527;55.766;37.570;2022-07-29T00:18:29;2.95;;;1.33;;
37791;SDS011;29527;55.766;37.570;2022-07-29T00:20:54;2.53;;;1.20;;
37791;SDS011;29527;55.766;37.570;2022-07-29T00:23:20;4.85;;;1.35;;
37791;SDS011;29527;55.766;37.570;2022-07-29T00:25:45;4.07;;;1.40;;
37791;SDS011;29527;55.766;37.570;2022-07-29T00:28:10;2.03;;;1.10;;
37791;SDS011;29527;55.766;37.570;2022-07-29T00:30:36;1.90;;;1.10;;
37791;SDS011;29527;55.766;37.570;2022-07-29T00:33:01;2.55;;;1.40;;
37791;SDS011;29527;55.766;37.570;2022-07-29T00:35:27;2.63;;;1.45;;
37791;SDS011;29527;55.766;37.570;2022-07-29T00:38:12;4.22;;;1.25;;
37791;SDS011;29527;55.766;37.570;2022-07-29T00:40:38;2.55;;;1.20;;
37791;SDS011;29527;55.766;37.570;2022-07-29T00:43:05;5.20;;;1.45;;
37791;SDS011;29527;55.766;37.570;2022-07-29T00:45:30;3.03;;;1.35;;
37791;SDS011;29527;55.766;37.570;2022-07-29T00:47:56;4.80;;;1.20;;
37791;SDS011;29527;55.766;37.570;2022-07-29T00:50:22;3.67;;;1.58;;
37791;SDS011;29527;55.766;37.570;2022-07-29T00:52:48;3.17;;;1.23;;
37791;SDS011;29527;55.766;37.570;2022-07-29T00:55:14;3.60;;;1.38;;
37791;SDS011;29527;55.766;37.570;2022-07-29T00:57:41;3.13;;;1.38;;
37791;SDS011;29527;55.766;37.570;2022-07-29T01:00:09;2.00;;;1.50;;
37791;SDS011;29527;55.766;37.570;2022-07-29T01:02:39;2.40;;;1.27;;
37791;SDS011;29527;55.766;37.570;2022-07-29T01:05:05;2.55;;;1.45;;
37791;SDS011;29527;55.766;37.570;2022-07-29T01:07:34;3.72;;;1.27;;
37791;SDS011;29527;55.766;37.570;2022-07-29T01:10:02;1.98;;;1.17;;
37791;SDS011;29527;55.766;37.570;2022-07-29T01:12:30;3.63;;;1.35;;
37791;SDS011;29527;55.766;37.570;2022-07-29T01:14:58;1.60;;;1.20;;
37791;SDS011;29527;55.766;37.570;2022-07-29T01:17:27;2.97;;;1.35;;
37791;SDS011;29527;55.766;37.570;2022-07-29T01:19:58;2.17;;;1.50;;
37791;SDS011;29527;55.766;37.570;2022-07-29T01:22:29;5.65;;;1.40;;
37791;SDS011;29527;55.766;37.570;2022-07-29T01:28:08;2.65;;;1.55;;
37791;SDS011;29527;55.766;37.570;2022-07-29T01:30:40;1.80;;;1.30;;
37791;SDS011;29527;55.766;37.570;2022-07-29T01:33:10;2.72;;;1.48;;
37791;SDS011;29527;55.766;37.570;2022-07-29T01:35:58;4.88;;;1.80;;
37791;SDS011;29527;55.766;37.570;2022-07-29T01:38:26;2.08;;;1.27;;
37791;SDS011;29527;55.766;37.570;2022-07-29T01:40:54;2.78;;;1.25;;
37791;SDS011;29527;55.766;37.570;2022-07-29T01:43:47;3.47;;;1.77;;
37791;SDS011;29527;55.766;37.570;2022-07-29T01:46:20;1.63;;;1.27;;
37791;SDS011;29527;55.766;37.570;2022-07-29T01:48:56;4.10;;;1.30;;
37791;SDS011;29527;55.766;37.570;2022-07-29T01:51:31;2.20;;;1.27;;
37791;SDS011;29527;55.766;37.570;2022-07-29T01:54:02;3.95;;;1.50;;
37791;SDS011;29527;55.766;37.570;2022-07-29T01:56:33;2.53;;;1.27;;
37791;SDS011;29527;55.766;37.570;2022-07-29T01:59:01;1.67;;;1.20;;
37791;SDS011;29527;55.766;37.570;2022-07-29T02:01:29;1.98;;;1.00;;
37791;SDS011;29527;55.766;37.570;2022-07-29T02:03:57;2.97;;;1.58;;
37791;SDS011;29527;55.766;37.570;2022-07-29T02:06:26;2.88;;;1.20;;
37791;SDS011;29527;55.766;37.570;2022-07-29T02:08:55;4.38;;;1.48;;
37791;SDS011;29527;55.766;37.570;2022-07-29T02:11:22;5.60;;;1.40;;
37791;SDS011;29527;55.766;37.570;2022-07-29T02:13:49;1.95;;;1.23;;
37791;SDS011;29527;55.766;37.570;2022-07-29T02:16:17;4.82;;;1.20;;
37791;SDS011;29527;55.766;37.570;2022-07-29T02:18:47;2.78;;;1.20;;
37791;SDS011;29527;55.766;37.570;2022-07-29T02:21:16;2.53;;;1.60;;
37791;SDS011;29527;55.766;37.570;2022-07-29T02:23:46;3.38;;;1.23;;
37791;SDS011;29527;55.766;37.570;2022-07-29T02:26:13;2.20;;;1.63;;
37791;SDS011;29527;55.766;37.570;2022-07-29T02:28:41;1.85;;;1.50;;
37791;SDS011;29527;55.766;37.570;2022-07-29T02:31:08;5.57;;;1.60;;
37791;SDS011;29527;55.766;37.570;2022-07-29T02:33:35;3.60;;;1.13;;
37791;SDS011;29527;55.766;37.570;2022-07-29T02:36:04;5.70;;;1.98;;
37791;SDS011;29527;55.766;37.570;2022-07-29T02:38:29;2.00;;;1.60;;
37791;SDS011;29527;55.766;37.570;2022-07-29T02:41:19;2.97;;;2.03;;
37791;SDS011;29527;55.766;37.570;2022-07-29T02:43:48;4.10;;;1.50;;
37791;SDS011;29527;55.766;37.570;2022-07-29T02:46:20;1.95;;;1.35;;
37791;SDS011;29527;55.766;37.570;2022-07-29T02:48:52;5.30;;;1.73;;
37791;SDS011;29527;55.766;37.570;2022-07-29T02:51:49;7.55;;;1.92;;
37791;SDS011;29527;55.766;37.570;2022-07-29T02:54:24;6.43;;;1.92;;
37791;SDS011;29527;55.766;37.570;2022-07-29T02:56:53;6.18;;;2.08;;
37791;SDS011;29527;55.766;37.570;2022-07-29T02:59:22;6.30;;;1.73;;
37791;SDS011;29527;55.766;37.570;2022-07-29T03:01:51;1.95;;;1.65;;
37791;SDS011;29527;55.766;37.570;2022-07-29T03:04:18;6.80;;;1.58;;
37791;SDS011;29527;55.766;37.570;2022-07-29T03:06:45;3.90;;;1.50;;
37791;SDS011;29527;55.766;37.570;2022-07-29T03:09:11;4.40;;;1.80;;
37791;SDS011;29527;55.766;37.570;2022-07-29T03:11:39;6.65;;;2.05;;
37791;SDS011;29527;55.766;37.570;2022-07-29T03:14:06;5.18;;;1.92;;
37791;SDS011;29527;55.766;37.570;2022-07-29T03:16:33;5.75;;;1.70;;
37791;SDS011;29527;55.766;37.570;2022-07-29T03:19:01;6.75;;;1.98;;
37791;SDS011;29527;55.766;37.570;2022-07-29T03:21:28;7.07;;;1.67;;
37791;SDS011;29527;55.766;37.570;2022-07-29T03:23:54;3.85;;;1.65;;
37791;SDS011;29527;55.766;37.570;2022-07-29T03:26:20;5.07;;;1.60;;
37791;SDS011;29527;55.766;37.570;2022-07-29T03:28:45;3.60;;;1.90;;
37791;SDS011;29527;55.766;37.570;2022-07-29T03:31:11;3.95;;;1.23;;
37791;SDS011;29527;55.766;37.570;2022-07-29T03:33:36;3.50;;;1.50;;
37791;SDS011;29527;55.766;37.570;2022-07-29T03:36:02;4.68;;;1.17;;
37791;SDS011;29527;55.766;37.570;2022-07-29T03:38:27;2.60;;;1.00;;
37791;SDS011;29527;55.766;37.570;2022-07-29T03:41:02;4.03;;;1.38;;
37791;SDS011;29527;55.766;37.570;2022-07-29T03:43:34;5.97;;;1.35;;
37791;SDS011;29527;55.766;37.570;2022-07-29T03:46:03;3.65;;;1.08;;
37791;SDS011;29527;55.766;37.570;2022-07-29T03:48:32;2.47;;;1.20;;
37791;SDS011;29527;55.766;37.570;2022-07-29T03:51:00;3.78;;;1.02;;
37791;SDS011;29527;55.766;37.570;2022-07-29T03:53:26;3.20;;;1.02;;
37791;SDS011;29527;55.766;37.570;2022-07-29T03:55:54;1.92;;;1.13;;
37791;SDS011;29527;55.766;37.570;2022-07-29T03:58:24;2.42;;;1.30;;
37791;SDS011;29527;55.766;37.570;2022-07-29T04:00:51;1.48;;;1.00;;
37791;SDS011;29527;55.766;37.570;2022-07-29T04:03:19;2.85;;;0.80;;
37791;SDS011;29527;55.766;37.570;2022-07-29T04:05:44;2.20;;;0.90;;
37791;SDS011;29527;55.766;37.570;2022-07-29T04:08:10;4.60;;;0.93;;
37791;SDS011;29527;55.766;37.570;2022-07-29T04:10:35;2.30;;;0.82;;
37791;SDS011;29527;55.766;37.570;2022-07-29T04:13:03;4.43;;;1.00;;
37791;SDS011;29527;55.766;37.570;2022-07-29T04:15:28;3.63;;;1.10;;
37791;SDS011;29527;55.766;37.570;2022-07-29T04:17:54;4.88;;;1.00;;
37791;SDS011;29527;55.766;37.570;2022-07-29T04:20:20;1.92;;;0.90;;
37791;SDS011;29527;55.766;37.570;2022-07-29T04:22:45;2.08;;;1.10;;
37791;SDS011;29527;55.766;37.570;2022-07-29T04:25:11;2.58;;;1.10;;
37791;SDS011;29527;55.766;37.570;2022-07-29T04:27:36;3.05;;;1.08;;
37791;SDS011;29527;55.766;37.570;2022-07-29T04:30:22;3.80;;;1.10;;
37791;SDS011;29527;55.766;37.570;2022-07-29T04:32:47;2.03;;;0.95;;
37791;SDS011;29527;55.766;37.570;2022-07-29T04:35:13;3.25;;;1.20;;
37791;SDS011;29527;55.766;37.570;2022-07-29T04:37:38;3.15;;;0.93;;
37791;SDS011;29527;55.766;37.570;2022-07-29T04:40:04;2.47;;;1.10;;
37791;SDS011;29527;55.766;37.570;2022-07-29T04:42:30;3.15;;;1.08;;
37791;SDS011;29527;55.766;37.570;2022-07-29T04:44:55;2.10;;;1.13;;
37791;SDS011;29527;55.766;37.570;2022-07-29T04:47:21;1.80;;;0.93;;
37791;SDS011;29527;55.766;37.570;2022-07-29T04:49:46;1.60;;;0.90;;
37791;SDS011;29527;55.766;37.570;2022-07-29T04:52:12;3.85;;;0.90;;
37791;SDS011;29527;55.766;37.570;2022-07-29T04:54:37;2.47;;;1.20;;
37791;SDS011;29527;55.766;37.570;2022-07-29T04:57:02;1.67;;;1.00;;
37791;SDS011;29527;55.766;37.570;2022-07-29T04:59:28;4.25;;;1.08;;
37791;SDS011;29527;55.766;37.570;2022-07-29T05:01:53;1.02;;;0.93;;
37791;SDS011;29527;55.766;37.570;2022-07-29T05:04:19;3.33;;;1.20;;
37791;SDS011;29527;55.766;37.570;2022-07-29T05:06:44;1.35;;;1.10;;
37791;SDS011;29527;55.766;37.570;2022-07-29T05:09:10;2.25;;;1.02;;
37791;SDS011;29527;55.766;37.570;2022-07-29T05:11:35;3.88;;;1.10;;
37791;SDS011;29527;55.766;37.570;2022-07-29T05:14:01;3.85;;;1.42;;
37791;SDS011;29527;55.766;37.570;2022-07-29T05:16:26;2.10;;;1.00;;
37791;SDS011;29527;55.766;37.570;2022-07-29T05:18:52;3.05;;;0.98;;
37791;SDS011;29527;55.766;37.570;2022-07-29T05:21:18;2.50;;;1.20;;
37791;SDS011;29527;55.766;37.570;2022-07-29T05:23:43;1.50;;;1.10;;
37791;SDS011;29527;55.766;37.570;2022-07-29T05:26:09;1.45;;;1.17;;
37791;SDS011;29527;55.766;37.570;2022-07-29T05:28:34;1.63;;;1.00;;
37791;SDS011;29527;55.766;37.570;2022-07-29T05:31:00;1.75;;;1.10;;
37791;SDS011;29527;55.766;37.570;2022-07-29T05:33:25;1.73;;;1.02;;
37791;SDS011;29527;55.766;37.570;2022-07-29T05:35:51;2.90;;;1.20;;
37791;SDS011;29527;55.766;37.570;2022-07-29T05:38:16;1.45;;;1.00;;
37791;SDS011;29527;55.766;37.570;2022-07-29T05:40:42;1.77;;;1.10;;
37791;SDS011;29527;55.766;37.570;2022-07-29T05:43:07;2.55;;;1.50;;
37791;SDS011;29527;55.766;37.570;2022-07-29T05:45:33;2.00;;;1.10;;
37791;SDS011;29527;55.766;37.570;2022-07-29T05:47:58;2.20;;;1.30;;
37791;SDS011;29527;55.766;37.570;2022-07-29T05:50:24;1.80;;;1.05;;
37791;SDS011;29527;55.766;37.570;2022-07-29T05:52:49;2.13;;;1.02;;
37791;SDS011;29527;55.766;37.570;2022-07-29T05:55:15;3.75;;;1.30;;
37791;SDS011;29527;55.766;37.570;2022-07-29T05:57:40;2.72;;;1.40;;
37791;SDS011;29527;55.766;37.570;2022-07-29T06:00:08;2.78;;;1.23;;
37791;SDS011;29527;55.766;37.570;2022-07-29T06:02:34;2.53;;;1.40;;
37791;SDS011;29527;55.766;37.570;2022-07-29T06:05:00;1.83;;;1.17;;
37791;SDS011;29527;55.766;37.570;2022-07-29T06:07:25;1.33;;;0.95;;
37791;SDS011;29527;55.766;37.570;2022-07-29T06:09:51;1.88;;;1.30;;
37791;SDS011;29527;55.766;37.570;2022-07-29T06:12:16;1.77;;;1.17;;
37791;SDS011;29527;55.766;37.570;2022-07-29T06:14:42;1.95;;;1.25;;
37791;SDS011;29527;55.766;37.570;2022-07-29T06:17:07;1.25;;;1.15;;
37791;SDS011;29527;55.766;37.570;2022-07-29T06:19:35;3.38;;;1.52;;
37791;SDS011;29527;55.766;37.570;2022-07-29T06:22:01;1.80;;;1.02;;
37791;SDS011;29527;55.766;37.570;2022-07-29T06:24:27;1.33;;;1.00;;
37791;SDS011;29527;55.766;37.570;2022-07-29T06:26:52;2.72;;;1.10;;
37791;SDS011;29527;55.766;37.570;2022-07-29T06:29:18;2.58;;;1.23;;
37791;SDS011;29527;55.766;37.570;2022-07-29T06:31:43;1.02;;;1.00;;
37791;SDS011;29527;55.766;37.570;2022-07-29T06:34:09;1.08;;;1.00;;
37791;SDS011;29527;55.766;37.570;2022-07-29T06:36:37;3.15;;;1.02;;
37791;SDS011;29527;55.766;37.570;2022-07-29T06:39:06;1.25;;;1.10;;
37791;SDS011;29527;55.766;37.570;2022-07-29T06:41:33;1.58;;;1.10;;
37791;SDS011;29527;55.766;37.570;2022-07-29T06:43:59;1.83;;;1.23;;
37791;SDS011;29527;55.766;37.570;2022-07-29T06:46:24;2.58;;;1.40;;
37791;SDS011;29527;55.766;37.570;2022-07-29T06:48:50;2.55;;;1.73;;
37791;SDS011;29527;55.766;37.570;2022-07-29T06:51:17;2.67;;;1.40;;
37791;SDS011;29527;55.766;37.570;2022-07-29T06:53:43;1.67;;;1.45;;
37791;SDS011;29527;55.766;37.570;2022-07-29T06:56:09;1.50;;;1.40;;
37791;SDS011;29527;55.766;37.570;2022-07-29T06:58:35;1.75;;;1.65;;
37791;SDS011;29527;55.766;37.570;2022-07-29T07:01:02;2.17;;;1.70;;
37791;SDS011;29527;55.766;37.570;2022-07-29T07:03:28;2.45;;;1.35;;
37791;SDS011;29527;55.766;37.570;2022-07-29T07:05:54;1.85;;;1.65;;
37791;SDS011;29527;55.766;37.570;2022-07-29T07:08:20;1.95;;;1.50;;
37791;SDS011;29527;55.766;37.570;2022-07-29T07:10:47;2.60;;;2.10;;
37791;SDS011;29527;55.766;37.570;2022-07-29T07:13:13;1.75;;;1.65;;
37791;SDS011;29527;55.766;37.570;2022-07-29T07:15:39;1.65;;;1.55;;
37791;SDS011;29527;55.766;37.570;2022-07-29T07:18:06;4.97;;;1.90;;
37791;SDS011;29527;55.766;37.570;2022-07-29T07:20:35;1.98;;;1.77;;
37791;SDS011;29527;55.766;37.570;2022-07-29T07:23:01;2.00;;;1.90;;
37791;SDS011;29527;55.766;37.570;2022-07-29T07:25:26;4.00;;;3.67;;
37791;SDS011;29527;55.766;37.570;2022-07-29T07:27:52;7.15;;;6.45;;
37791;SDS011;29527;55.766;37.570;2022-07-29T07:30:17;5.78;;;5.15;;
37791;SDS011;29527;55.766;37.570;2022-07-29T07:32:43;6.60;;;4.80;;
37791;SDS011;29527;55.766;37.570;2022-07-29T07:35:09;4.80;;;2.80;;
37791;SDS011;29527;55.766;37.570;2022-07-29T07:37:35;1.65;;;1.40;;
37791;SDS011;29527;55.766;37.570;2022-07-29T07:40:01;3.38;;;1.70;;
37791;SDS011;29527;55.766;37.570;2022-07-29T07:42:29;2.92;;;2.72;;
37791;SDS011;29527;55.766;37.570;2022-07-29T07:44:55;2.72;;;1.30;;
37791;SDS011;29527;55.766;37.570;2022-07-29T07:47:20;2.72;;;1.60;;
37791;SDS011;29527;55.766;37.570;2022-07-29T07:49:46;2.28;;;1.13;;
37791;SDS011;29527;55.766;37.570;2022-07-29T07:52:12;2.28;;;1.80;;
37791;SDS011;29527;55.766;37.570;2022-07-29T07:54:39;3.42;;;1.70;;
37791;SDS011;29527;55.766;37.570;2022-07-29T07:57:04;2.00;;;1.02;;
37791;SDS011;29527;55.766;37.570;2022-07-29T07:59:30;2.85;;;1.10;;
37791;SDS011;29527;55.766;37.570;2022-07-29T08:01:55;2.47;;;0.98;;
37791;SDS011;29527;55.766;37.570;2022-07-29T08:04:21;1.63;;;1.00;;
37791;SDS011;29527;55.766;37.570;2022-07-29T08:06:47;2.28;;;1.10;;
37791;SDS011;29527;55.766;37.570;2022-07-29T08:09:14;1.58;;;1.10;;
37791;SDS011;29527;55.766;37.570;2022-07-29T08:11:40;3.13;;;0.90;;
37791;SDS011;29527;55.766;37.570;2022-07-29T08:14:06;6.35;;;1.65;;
37791;SDS011;29527;55.766;37.570;2022-07-29T08:16:31;5.80;;;1.00;;
37791;SDS011;29527;55.766;37.570;2022-07-29T08:18:56;3.10;;;1.40;;
37791;SDS011;29527;55.766;37.570;2022-07-29T08:21:22;3.78;;;0.90;;
37791;SDS011;29527;55.766;37.570;2022-07-29T08:23:49;1.02;;;0.90;;
37791;SDS011;29527;55.766;37.570;2022-07-29T08:26:18;0.77;;;0.70;;
37791;SDS011;29527;55.766;37.570;2022-07-29T08:28:47;1.75;;;0.82;;
37791;SDS011;29527;55.766;37.570;2022-07-29T08:31:15;1.48;;;1.00;;
37791;SDS011;29527;55.766;37.570;2022-07-29T08:33:41;3.17;;;0.80;;
37791;SDS011;29527;55.766;37.570;2022-07-29T08:36:08;2.05;;;0.80;;
37791;SDS011;29527;55.766;37.570;2022-07-29T08:38:33;2.13;;;1.13;;
37791;SDS011;29527;55.766;37.570;2022-07-29T08:41:00;2.28;;;0.93;;
37791;SDS011;29527;55.766;37.570;2022-07-29T08:43:27;1.50;;;0.85;;
37791;SDS011;29527;55.766;37.570;2022-07-29T08:45:53;2.22;;;1.13;;
37791;SDS011;29527;55.766;37.570;2022-07-29T08:48:19;1.50;;;0.90;;
37791;SDS011;29527;55.766;37.570;2022-07-29T08:50:47;1.02;;;0.95;;
37791;SDS011;29527;55.766;37.570;2022-07-29T08:53:15;2.22;;;1.13;;
37791;SDS011;29527;55.766;37.570;2022-07-29T08:55:43;2.35;;;0.88;;
37791;SDS011;29527;55.766;37.570;2022-07-29T08:58:10;1.70;;;1.00;;
37791;SDS011;29527;55.766;37.570;2022-07-29T09:00:37;1.33;;;0.90;;
37791;SDS011;29527;55.766;37.570;2022-07-29T09:03:07;1.17;;;0.70;;
37791;SDS011;29527;55.766;37.570;2022-07-29T09:05:34;3.90;;;1.00;;
37791;SDS011;29527;55.766;37.570;2022-07-29T09:08:00;1.92;;;1.00;;
37791;SDS011;29527;55.766;37.570;2022-07-29T09:10:26;3.22;;;0.88;;
37791;SDS011;29527;55.766;37.570;2022-07-29T09:12:54;2.92;;;1.15;;
37791;SDS011;29527;55.766;37.570;2022-07-29T09:15:20;4.13;;;1.13;;
37791;SDS011;29527;55.766;37.570;2022-07-29T09:17:46;2.33;;;1.00;;
37791;SDS011;29527;55.766;37.570;2022-07-29T09:20:17;2.15;;;0.70;;
37791;SDS011;29527;55.766;37.570;2022-07-29T09:22:44;4.35;;;0.80;;
37791;SDS011;29527;55.766;37.570;2022-07-29T09:25:15;0.82;;;0.70;;
37791;SDS011;29527;55.766;37.570;2022-07-29T09:28:05;0.93;;;0.60;;
37791;SDS011;29527;55.766;37.570;2022-07-29T09:30:35;1.45;;;0.85;;
37791;SDS011;29527;55.766;37.570;2022-07-29T09:33:04;1.25;;;0.80;;
37791;SDS011;29527;55.766;37.570;2022-07-29T09:35:30;1.90;;;1.10;;
37791;SDS011;29527;55.766;37.570;2022-07-29T09:37:56;1.42;;;0.82;;
37791;SDS011;29527;55.766;37.570;2022-07-29T09:40:23;4.50;;;1.13;;
37791;SDS011;29527;55.766;37.570;2022-07-29T09:42:50;3.10;;;0.80;;
37791;SDS011;29527;55.766;37.570;2022-07-29T09:45:27;2.85;;;0.75;;
37791;SDS011;29527;55.766;37.570;2022-07-29T09:47:59;2.15;;;0.80;;
37791;SDS011;29527;55.766;37.570;2022-07-29T09:50:39;2.10;;;0.70;;
37791;SDS011;29527;55.766;37.570;2022-07-29T09:53:05;1.75;;;0.70;;
37791;SDS011;29527;55.766;37.570;2022-07-29T09:55:31;1.25;;;0.70;;
37791;SDS011;29527;55.766;37.570;2022-07-29T09:58:16;2.83;;;0.88;;
37791;SDS011;29527;55.766;37.570;2022-07-29T10:00:42;2.00;;;0.80;;
37791;SDS011;29527;55.766;37.570;2022-07-29T10:03:09;4.97;;;1.15;;
37791;SDS011;29527;55.766;37.570;2022-07-29T10:05:35;3.80;;;1.13;;
37791;SDS011;29527;55.766;37.570;2022-07-29T10:08:00;1.77;;;1.00;;
37791;SDS011;29527;55.766;37.570;2022-07-29T10:10:27;1.55;;;0.75;;
37791;SDS011;29527;55.766;37.570;2022-07-29T10:13:02;0.88;;;0.60;;
37791;SDS011;29527;55.766;37.570;2022-07-29T10:15:30;1.42;;;0.75;;
37791;SDS011;29527;55.766;37.570;2022-07-29T10:17:57;0.73;;;0.63;;
37791;SDS011;29527;55.766;37.570;2022-07-29T10:20:24;2.65;;;0.80;;
37791;SDS011;29527;55.766;37.570;2022-07-29T10:22:51;1.88;;;0.80;;
37791;SDS011;29527;55.766;37.570;2022-07-29T10:25:17;1.13;;;0.90;;
37791;SDS011;29527;55.766;37.570;2022-07-29T10:27:44;1.85;;;0.70;;
37791;SDS011;29527;55.766;37.570;2022-07-29T10:30:11;2.38;;;0.80;;
37791;SDS011;29527;55.766;37.570;2022-07-29T10:43:36;2.08;;;0.70;;
37791;SDS011;29527;55.766;37.570;2022-07-29T10:46:06;0.80;;;0.70;;
37791;SDS011;29527;55.766;37.570;2022-07-29T10:48:32;1.13;;;0.68;;
37791;SDS011;29527;55.766;37.570;2022-07-29T10:50:59;0.73;;;0.50;;
37791;SDS011;29527;55.766;37.570;2022-07-29T10:56:30;1.17;;;0.90;;
37791;SDS011;29527;55.766;37.570;2022-07-29T11:01:46;3.40;;;0.80;;
37791;SDS011;29527;55.766;37.570;2022-07-29T11:07:09;1.33;;;0.60;;
37791;SDS011;29527;55.766;37.570;2022-07-29T11:09:35;3.40;;;0.80;;
37791;SDS011;29527;55.766;37.570;2022-07-29T11:12:00;1.42;;;0.60;;
37791;SDS011;29527;55.766;37.570;2022-07-29T11:17:17;1.08;;;0.52;;
37791;SDS011;29527;55.766;37.570;2022-07-29T11:19:43;1.27;;;0.80;;
37791;SDS011;29527;55.766;37.570;2022-07-29T11:22:09;1.67;;;0.80;;
37791;SDS011;29527;55.766;37.570;2022-07-29T11:24:36;1.00;;;0.70;;
37791;SDS011;29527;55.766;37.570;2022-07-29T11:29:51;1.48;;;0.70;;
37791;SDS011;29527;55.766;37.570;2022-07-29T11:32:18;0.50;;;0.50;;
37791;SDS011;29527;55.766;37.570;2022-07-29T11:34:45;2.97;;;0.60;;
37791;SDS011;29527;55.766;37.570;2022-07-29T11:39:41;1.80;;;0.90;;
37791;SDS011;29527;55.766;37.570;2022-07-29T11:50:12;1.55;;;0.85;;
37791;SDS011;29527;55.766;37.570;2022-07-29T11:52:39;3.60;;;0.80;;
37791;SDS011;29527;55.766;37.570;2022-07-29T11:55:19;1.05;;;0.70;;
37791;SDS011;29527;55.766;37.570;2022-07-29T12:00:21;1.10;;;0.88;;
37791;SDS011;29527;55.766;37.570;2022-07-29T12:02:48;1.90;;;0.73;;
37791;SDS011;29527;55.766;37.570;2022-07-29T12:05:14;2.40;;;0.65;;
37791;SDS011;29527;55.766;37.570;2022-07-29T12:07:40;1.35;;;0.80;;
37791;SDS011;29527;55.766;37.570;2022-07-29T12:10:07;1.77;;;0.93;;
37791;SDS011;29527;55.766;37.570;2022-07-29T12:12:33;3.72;;;0.80;;
37791;SDS011;29527;55.766;37.570;2022-07-29T12:15:15;1.20;;;0.68;;
37791;SDS011;29527;55.766;37.570;2022-07-29T12:17:43;3.28;;;1.40;;
37791;SDS011;29527;55.766;37.570;2022-07-29T12:20:09;1.20;;;0.80;;
37791;SDS011;29527;55.766;37.570;2022-07-29T12:22:36;1.35;;;0.70;;
37791;SDS011;29527;55.766;37.570;2022-07-29T12:25:05;1.33;;;0.70;;
37791;SDS011;29527;55.766;37.570;2022-07-29T12:27:40;6.07;;;0.93;;
37791;SDS011;29527;55.766;37.570;2022-07-29T12:30:09;2.47;;;0.75;;
37791;SDS011;29527;55.766;37.570;2022-07-29T12:35:02;2.15;;;0.93;;
37791;SDS011;29527;55.766;37.570;2022-07-29T12:37:33;2.67;;;0.90;;
37791;SDS011;29527;55.766;37.570;2022-07-29T12:40:01;4.85;;;1.00;;
37791;SDS011;29527;55.766;37.570;2022-07-29T12:42:28;4.32;;;0.90;;
37791;SDS011;29527;55.766;37.570;2022-07-29T12:44:54;1.55;;;0.73;;
37791;SDS011;29527;55.766;37.570;2022-07-29T12:47:19;0.88;;;0.60;;
37791;SDS011;29527;55.766;37.570;2022-07-29T12:49:45;2.38;;;0.60;;
37791;SDS011;29527;55.766;37.570;2022-07-29T12:52:25;1.98;;;0.90;;
37791;SDS011;29527;55.766;37.570;2022-07-29T12:54:55;2.58;;;0.77;;
37791;SDS011;29527;55.766;37.570;2022-07-29T12:57:22;2.05;;;0.60;;
37791;SDS011;29527;55.766;37.570;2022-07-29T13:00:05;0.90;;;0.65;;
37791;SDS011;29527;55.766;37.570;2022-07-29T13:02:36;0.88;;;0.68;;
37791;SDS011;29527;55.766;37.570;2022-07-29T13:05:04;1.60;;;0.70;;
37791;SDS011;29527;55.766;37.570;2022-07-29T13:07:31;1.77;;;0.80;;
37791;SDS011;29527;55.766;37.570;2022-07-29T13:12:36;0.90;;;0.70;;
37791;SDS011;29527;55.766;37.570;2022-07-29T13:15:11;1.60;;;1.20;;
37791;SDS011;29527;55.766;37.570;2022-07-29T13:17:41;3.17;;;0.75;;
37791;SDS011;29527;55.766;37.570;2022-07-29T13:20:11;5.35;;;1.10;;
37791;SDS011;29527;55.766;37.570;2022-07-29T13:22:38;4.03;;;1.13;;
37791;SDS011;29527;55.766;37.570;2022-07-29T13:25:05;2.35;;;1.10;;
37791;SDS011;29527;55.766;37.570;2022-07-29T13:27:35;4.43;;;1.50;;
37791;SDS011;29527;55.766;37.570;2022-07-29T13:30:03;2.05;;;0.60;;
37791;SDS011;29527;55.766;37.570;2022-07-29T13:32:32;1.85;;;0.90;;
37791;SDS011;29527;55.766;37.570;2022-07-29T13:35:02;2.13;;;0.77;;
37791;SDS011;29527;55.766;37.570;2022-07-29T13:37:30;1.95;;;0.88;;
37791;SDS011;29527;55.766;37.570;2022-07-29T13:39:57;4.25;;;1.65;;
37791;SDS011;29527;55.766;37.570;2022-07-29T13:42:24;3.20;;;1.00;;
37791;SDS011;29527;55.766;37.570;2022-07-29T13:44:50;1.95;;;0.80;;
37791;SDS011;29527;55.766;37.570;2022-07-29T13:47:17;3.03;;;0.82;;
37791;SDS011;29527;55.766;37.570;2022-07-29T13:49:43;2.47;;;0.63;;
37791;SDS011;29527;55.766;37.570;2022-07-29T13:52:09;2.45;;;0.90;;
37791;SDS011;29527;55.766;37.570;2022-07-29T13:54:34;1.38;;;0.95;;
37791;SDS011;29527;55.766;37.570;2022-07-29T13:57:03;1.88;;;0.88;;
37791;SDS011;29527;55.766;37.570;2022-07-29T13:59:29;3.15;;;1.08;;
37791;SDS011;29527;55.766;37.570;2022-07-29T14:01:55;1.13;;;1.00;;
37791;SDS011;29527;55.766;37.570;2022-07-29T14:04:20;2.45;;;0.60;;
37791;SDS011;29527;55.766;37.570;2022-07-29T14:06:48;1.10;;;0.80;;
37791;SDS011;29527;55.766;37.570;2022-07-29T14:09:14;3.45;;;0.93;;
37791;SDS011;29527;55.766;37.570;2022-07-29T14:11:40;2.60;;;1.20;;
37791;SDS011;29527;55.766;37.570;2022-07-29T14:14:05;1.75;;;0.90;;
37791;SDS011;29527;55.766;37.570;2022-07-29T14:16:31;2.15;;;1.00;;
37791;SDS011;29527;55.766;37.570;2022-07-29T14:18:56;2.20;;;0.98;;
37791;SDS011;29527;55.766;37.570;2022-07-29T14:21:22;1.15;;;0.85;;
37791;SDS011;29527;55.766;37.570;2022-07-29T14:23:48;5.63;;;1.30;;
37791;SDS011;29527;55.766;37.570;2022-07-29T14:26:13;1.48;;;1.05;;
37791;SDS011;29527;55.766;37.570;2022-07-29T14:28:39;4.75;;;1.00;;
37791;SDS011;29527;55.766;37.570;2022-07-29T14:31:04;2.78;;;1.40;;
37791;SDS011;29527;55.766;37.570;2022-07-29T14:33:29;3.75;;;1.20;;
37791;SDS011;29527;55.766;37.570;2022-07-29T14:35:55;2.33;;;0.82;;
37791;SDS011;29527;55.766;37.570;2022-07-29T14:38:20;1.23;;;1.05;;
37791;SDS011;29527;55.766;37.570;2022-07-29T14:40:46;5.07;;;1.30;;
37791;SDS011;29527;55.766;37.570;2022-07-29T14:43:12;1.52;;;1.00;;
37791;SDS011;29527;55.766;37.570;2022-07-29T14:45:38;2.22;;;1.05;;
37791;SDS011;29527;55.766;37.570;2022-07-29T14:48:04;2.47;;;1.38;;
37791;SDS011;29527;55.766;37.570;2022-07-29T14:50:30;3.17;;;1.33;;
37791;SDS011;29527;55.766;37.570;2022-07-29T14:52:56;1.50;;;1.10;;
37791;SDS011;29527;55.766;37.570;2022-07-29T14:55:21;1.85;;;1.35;;
37791;SDS011;29527;55.766;37.570;2022-07-29T14:57:47;2.67;;;1.10;;
37791;SDS011;29527;55.766;37.570;2022-07-29T15:00:15;1.35;;;0.90;;
37791;SDS011;29527;55.766;37.570;2022-07-29T15:02:41;1.77;;;0.93;;
37791;SDS011;29527;55.766;37.570;2022-07-29T15:05:06;1.67;;;0.73;;
37791;SDS011;29527;55.766;37.570;2022-07-29T15:07:32;1.25;;;0.90;;
37791;SDS011;29527;55.766;37.570;2022-07-29T15:09:58;2.92;;;0.95;;
37791;SDS011;29527;55.766;37.570;2022-07-29T15:12:23;1.13;;;0.75;;
37791;SDS011;29527;55.766;37.570;2022-07-29T15:14:48;1.92;;;1.00;;
37791;SDS011;29527;55.766;37.570;2022-07-29T15:17:14;0.98;;;0.70;;
37791;SDS011;29527;55.766;37.570;2022-07-29T15:19:39;2.15;;;0.70;;
37791;SDS011;29527;55.766;37.570;2022-07-29T15:22:05;2.65;;;0.80;;